createdAt,value
2023-01-19T00:01:05.623Z,84.01
2023-01-19T00:03:35.237Z,84.00
2023-01-19T00:06:07.980Z,83.67
2023-01-19T00:08:37.807Z,83.98
2023-01-19T00:11:08.016Z,83.69
2023-01-19T00:13:40.201Z,83.50
2023-01-19T00:16:10.575Z,83.50
2023-01-19T00:18:40.187Z,83.67
2023-01-19T00:21:09.738Z,83.68
2023-01-19T00:23:39.362Z,83.47
2023-01-19T00:26:10.325Z,83.82
2023-01-19T00:28:42.481Z,83.78
2023-01-19T00:31:12.149Z,83.82
2023-01-19T00:33:41.769Z,83.78
2023-01-19T00:36:12.807Z,83.80
2023-01-19T00:38:42.367Z,84.06
2023-01-19T00:41:11.931Z,83.88
2023-01-19T00:43:41.577Z,84.09
2023-01-19T00:46:11.225Z,83.84
2023-01-19T00:48:40.873Z,83.71
2023-01-19T00:51:10.511Z,83.83
2023-01-19T00:53:40.081Z,84.02
2023-01-19T00:56:10.555Z,83.98
2023-01-19T00:58:40.126Z,84.01
2023-01-19T01:01:12.373Z,83.99
2023-01-19T01:03:42.038Z,83.84
2023-01-19T01:06:11.674Z,83.97
2023-01-19T01:08:41.281Z,83.99
2023-01-19T01:11:10.844Z,84.20
2023-01-19T01:13:40.440Z,84.24
2023-01-19T01:16:12.913Z,84.30
2023-01-19T01:18:42.494Z,84.05
2023-01-19T01:21:15.563Z,84.05
2023-01-19T01:23:45.144Z,83.98
2023-01-19T01:26:14.752Z,84.13
2023-01-19T01:28:44.358Z,83.97
2023-01-19T01:31:16.552Z,83.79
2023-01-19T01:33:46.141Z,83.77
2023-01-19T01:36:15.732Z,83.80
2023-01-19T01:38:45.307Z,83.85
2023-01-19T01:41:15.321Z,83.89
2023-01-19T01:43:48.285Z,83.67
2023-01-19T01:46:20.712Z,83.65
2023-01-19T01:48:53.707Z,83.92
2023-01-19T01:51:27.254Z,83.68
2023-01-19T01:54:06.827Z,83.65
2023-01-19T01:56:39.029Z,83.78
2023-01-19T01:59:10.756Z,83.56
2023-01-19T02:01:55.683Z,83.71
2023-01-19T02:04:26.345Z,83.53
2023-01-19T02:07:08.398Z,83.50
2023-01-19T02:09:52.275Z,83.50
2023-01-19T02:12:34.329Z,83.36
2023-01-19T02:15:04.153Z,83.45
2023-01-19T02:17:36.300Z,83.44
2023-01-19T02:20:06.278Z,83.67
2023-01-19T02:22:39.715Z,83.58
2023-01-19T02:25:12.335Z,83.70
2023-01-19T02:27:41.877Z,83.59
2023-01-19T02:30:13.473Z,83.77
2023-01-19T02:32:43.052Z,83.61
2023-01-19T02:35:13.182Z,83.87
2023-01-19T02:37:43.457Z,83.70
2023-01-19T02:40:19.752Z,83.44
2023-01-19T02:42:51.774Z,83.50
2023-01-19T02:45:24.290Z,83.54
2023-01-19T02:47:55.304Z,83.38
2023-01-19T02:50:41.883Z,83.27
2023-01-19T02:53:43.357Z,83.32
2023-01-19T02:56:32.853Z,82.98
2023-01-19T02:59:05.111Z,83.12
2023-01-19T03:01:43.536Z,83.12
2023-01-19T03:04:18.761Z,83.16
2023-01-19T03:06:51.865Z,82.97
2023-01-19T03:09:29.690Z,83.07
2023-01-19T03:12:05.533Z,82.93
2023-01-19T03:14:36.642Z,83.13
2023-01-19T03:17:08.162Z,83.08
2023-01-19T03:19:40.008Z,82.98
2023-01-19T03:22:13.367Z,82.88
2023-01-19T03:24:45.153Z,83.09
2023-01-19T03:27:19.959Z,83.02
2023-01-19T03:29:52.846Z,82.89
2023-01-19T03:32:25.076Z,83.15
2023-01-19T03:34:56.466Z,83.24
2023-01-19T03:37:27.200Z,82.95
2023-01-19T03:39:57.212Z,83.31
2023-01-19T03:42:30.392Z,83.33
2023-01-19T03:45:01.269Z,83.25
2023-01-19T03:47:31.428Z,83.07
2023-01-19T03:50:01.377Z,83.08
2023-01-19T03:52:33.201Z,83.17
2023-01-19T03:55:03.878Z,82.88
2023-01-19T03:57:36.034Z,82.97
2023-01-19T04:00:06.714Z,82.86
2023-01-19T04:02:41.602Z,83.09
2023-01-19T04:05:12.729Z,82.96
2023-01-19T04:07:42.283Z,82.84
2023-01-19T04:10:13.381Z,82.71
2023-01-19T04:12:45.548Z,82.47
2023-01-19T04:15:15.441Z,82.56
2023-01-19T04:17:45.011Z,82.26
2023-01-19T04:20:15.011Z,82.40
2023-01-19T04:22:44.716Z,82.32
2023-01-19T04:25:14.283Z,81.97
2023-01-19T04:27:46.400Z,82.20
2023-01-19T04:30:16.927Z,82.04
2023-01-19T04:32:46.936Z,81.91
2023-01-19T04:35:17.029Z,82.17
2023-01-19T04:37:47.537Z,82.73
2023-01-19T04:40:17.346Z,83.12
2023-01-19T04:42:49.722Z,83.23
2023-01-19T04:45:19.729Z,83.60
2023-01-19T04:47:49.303Z,83.93
2023-01-19T04:50:19.307Z,84.16
2023-01-19T04:52:49.113Z,84.36
2023-01-19T04:55:19.846Z,84.49
2023-01-19T04:57:51.981Z,85.06
2023-01-19T05:00:22.178Z,85.06
2023-01-19T05:02:51.839Z,85.17
2023-01-19T05:05:21.447Z,85.23
2023-01-19T05:07:51.058Z,85.67
2023-01-19T05:10:20.761Z,85.67
2023-01-19T05:12:52.998Z,86.09
2023-01-19T05:15:22.617Z,86.21
2023-01-19T05:17:52.908Z,86.44
2023-01-19T05:20:22.595Z,86.89
2023-01-19T05:22:53.423Z,86.96
2023-01-19T05:25:23.017Z,87.32
2023-01-19T05:27:55.173Z,87.59
2023-01-19T05:30:24.736Z,87.71
2023-01-19T05:32:54.306Z,87.97
2023-01-19T05:35:35.429Z,88.11
2023-01-19T05:38:05.515Z,88.13
2023-01-19T05:40:35.146Z,88.43
2023-01-19T05:43:07.401Z,88.23
2023-01-19T05:45:38.879Z,88.40
2023-01-19T05:48:09.506Z,88.64
2023-01-19T05:50:39.890Z,89.02
2023-01-19T05:53:09.438Z,89.24
2023-01-19T05:55:39.137Z,89.44
2023-01-19T05:58:11.343Z,89.65
2023-01-19T06:00:40.901Z,89.78
2023-01-19T06:03:10.467Z,90.19
2023-01-19T06:05:40.039Z,90.18
2023-01-19T06:08:09.581Z,90.36
2023-01-19T06:10:39.544Z,90.89
2023-01-19T06:13:12.184Z,90.70
2023-01-19T06:15:43.043Z,90.75
2023-01-19T06:18:12.628Z,90.71
2023-01-19T06:20:42.250Z,90.95
2023-01-19T06:23:11.792Z,91.51
2023-01-19T06:25:41.466Z,91.63
2023-01-19T06:28:13.734Z,91.75
2023-01-19T06:30:43.713Z,91.54
2023-01-19T06:33:13.375Z,91.65
2023-01-19T06:35:45.881Z,91.64
2023-01-19T06:38:17.187Z,91.79
2023-01-19T06:40:47.075Z,92.04
2023-01-19T06:43:20.324Z,91.88
2023-01-19T06:45:50.304Z,92.28
2023-01-19T06:48:20.510Z,92.04
2023-01-19T06:50:50.437Z,92.23
2023-01-19T06:53:22.269Z,92.04
2023-01-19T06:55:51.883Z,92.03
2023-01-19T06:58:24.326Z,92.25
2023-01-19T07:00:53.990Z,92.49
2023-01-19T07:03:25.977Z,92.78
2023-01-19T07:05:57.089Z,92.97
2023-01-19T07:08:27.137Z,93.10
2023-01-19T07:11:22.266Z,93.42
2023-01-19T07:13:57.045Z,93.56
2023-01-19T07:16:26.772Z,93.61
2023-01-19T07:18:56.483Z,93.73
2023-01-19T07:21:28.961Z,93.51
2023-01-19T07:23:59.104Z,93.63
2023-01-19T07:26:28.719Z,93.65
2023-01-19T07:29:00.834Z,93.90
2023-01-19T07:31:30.557Z,93.79
2023-01-19T07:34:00.697Z,93.78
2023-01-19T07:36:30.423Z,93.85
2023-01-19T07:39:00.171Z,93.87
2023-01-19T07:41:29.717Z,93.56
2023-01-19T07:44:01.888Z,93.81
2023-01-19T07:46:31.462Z,94.01
2023-01-19T07:49:01.002Z,93.86
2023-01-19T07:51:30.631Z,93.96
2023-01-19T07:54:00.241Z,93.89
2023-01-19T07:56:33.607Z,93.96
2023-01-19T07:59:07.442Z,93.99
2023-01-19T08:01:37.771Z,93.96
2023-01-19T08:04:07.840Z,93.89
2023-01-19T08:06:39.252Z,94.03
2023-01-19T08:09:10.069Z,93.90
2023-01-19T08:11:39.696Z,94.10
2023-01-19T08:14:12.729Z,93.92
2023-01-19T08:16:42.304Z,94.06
2023-01-19T08:19:11.868Z,94.04
2023-01-19T08:21:41.562Z,93.72
2023-01-19T08:24:21.432Z,93.91
2023-01-19T08:26:53.096Z,93.72
2023-01-19T08:29:25.237Z,93.76
2023-01-19T08:31:57.467Z,93.64
2023-01-19T08:34:27.331Z,93.46
2023-01-19T08:36:56.939Z,93.70
2023-01-19T08:39:27.419Z,93.57
2023-01-19T08:41:58.194Z,93.23
2023-01-19T08:44:30.407Z,93.19
2023-01-19T08:47:00.033Z,93.26
2023-01-19T08:49:29.589Z,92.98
2023-01-19T08:51:59.123Z,92.91
2023-01-19T08:54:28.694Z,92.97
2023-01-19T08:56:58.494Z,92.71
2023-01-19T08:59:30.643Z,92.65
2023-01-19T09:02:00.430Z,92.79
2023-01-19T09:04:30.044Z,92.60
2023-01-19T09:06:59.635Z,92.31
2023-01-19T09:09:29.189Z,92.46
2023-01-19T09:11:58.861Z,92.35
2023-01-19T09:14:31.064Z,92.20
2023-01-19T09:17:00.660Z,92.19
2023-01-19T09:19:30.665Z,91.92
2023-01-19T09:22:00.470Z,91.72
2023-01-19T09:24:30.018Z,91.67
2023-01-19T09:26:59.584Z,91.54
2023-01-19T09:29:31.744Z,91.41
2023-01-19T09:32:01.336Z,91.51
2023-01-19T09:34:31.456Z,91.20
2023-01-19T09:37:01.042Z,91.05
2023-01-19T09:39:30.717Z,91.25
2023-01-19T09:42:05.987Z,90.90
2023-01-19T09:44:38.541Z,90.61
2023-01-19T09:47:17.147Z,90.59
2023-01-19T09:49:49.439Z,90.58
2023-01-19T09:52:20.473Z,90.41
2023-01-19T09:54:54.994Z,90.40
2023-01-19T09:57:25.133Z,90.45
2023-01-19T09:59:59.778Z,90.20
2023-01-19T10:02:37.244Z,90.24
2023-01-19T10:05:08.541Z,90.09
2023-01-19T10:07:58.430Z,90.01
2023-01-19T10:10:29.410Z,89.80
2023-01-19T10:13:06.882Z,89.85
2023-01-19T10:15:48.055Z,89.65
2023-01-19T10:18:21.764Z,89.82
2023-01-19T10:20:53.675Z,89.72
2023-01-19T10:23:38.206Z,89.69
2023-01-19T10:26:12.378Z,89.62
2023-01-19T10:28:41.731Z,89.61
2023-01-19T10:31:14.555Z,89.97
2023-01-19T10:33:44.225Z,89.50
2023-01-19T10:36:21.174Z,89.36
2023-01-19T10:38:52.009Z,89.42
2023-01-19T10:41:24.322Z,89.44
2023-01-19T10:44:02.409Z,89.45
2023-01-19T10:46:40.297Z,89.40
2023-01-19T10:49:10.137Z,89.42
2023-01-19T10:51:49.481Z,89.22
2023-01-19T10:54:19.321Z,89.42
2023-01-19T10:56:54.101Z,89.23
2023-01-19T10:59:35.778Z,89.20
2023-01-19T11:02:17.891Z,89.40
2023-01-19T11:04:50.216Z,89.25
2023-01-19T11:07:23.282Z,89.48
2023-01-19T11:09:53.203Z,89.24
2023-01-19T11:12:25.054Z,89.29
2023-01-19T11:14:54.657Z,89.58
2023-01-19T11:17:28.059Z,89.26
2023-01-19T11:20:02.748Z,89.30
2023-01-19T11:22:34.354Z,89.04
2023-01-19T11:25:06.642Z,89.37
2023-01-19T11:27:39.144Z,89.10
2023-01-19T11:30:12.681Z,89.09
2023-01-19T11:32:44.822Z,88.91
2023-01-19T11:35:36.609Z,88.82
2023-01-19T11:38:20.152Z,88.83
2023-01-19T11:40:55.192Z,88.85
2023-01-19T11:43:30.173Z,88.66
2023-01-19T11:46:03.797Z,88.40
2023-01-19T11:48:40.019Z,88.53
2023-01-19T11:51:15.072Z,88.38
2023-01-19T11:53:46.466Z,88.25
2023-01-19T11:56:17.414Z,88.39
2023-01-19T11:58:48.784Z,88.49
2023-01-19T12:01:24.919Z,88.46
2023-01-19T12:04:01.219Z,88.47
2023-01-19T12:06:34.226Z,88.61
2023-01-19T12:09:06.790Z,88.76
2023-01-19T12:11:40.305Z,88.61
2023-01-19T12:14:17.109Z,88.73
2023-01-19T12:16:47.110Z,88.43
2023-01-19T12:19:21.776Z,88.43
2023-01-19T12:21:52.571Z,88.53
2023-01-19T12:24:29.078Z,88.52
2023-01-19T12:26:59.996Z,88.34
2023-01-19T12:29:32.235Z,88.82
2023-01-19T12:32:20.265Z,88.57
2023-01-19T12:34:53.218Z,88.52
2023-01-19T12:37:37.363Z,88.54
2023-01-19T12:40:21.952Z,88.34
2023-01-19T12:42:57.097Z,88.58
2023-01-19T12:45:28.314Z,88.56
2023-01-19T12:47:58.707Z,88.64
2023-01-19T12:50:35.000Z,88.67
2023-01-19T12:53:08.341Z,88.43
2023-01-19T12:55:46.576Z,88.52
2023-01-19T12:58:18.818Z,88.46
2023-01-19T13:00:50.191Z,88.64
2023-01-19T13:04:00.598Z,88.41
2023-01-19T13:07:04.765Z,87.91
2023-01-19T13:09:37.891Z,87.94
2023-01-19T13:12:23.799Z,87.86
2023-01-19T13:14:53.501Z,87.29
2023-01-19T13:17:33.549Z,87.52
2023-01-19T13:20:07.068Z,87.69
2023-01-19T13:23:16.572Z,87.65
2023-01-19T13:25:50.845Z,87.74
2023-01-19T13:28:20.495Z,87.27
2023-01-19T13:30:57.766Z,87.61
2023-01-19T13:33:29.755Z,87.48
2023-01-19T13:36:00.015Z,87.50
2023-01-19T13:38:32.906Z,87.32
2023-01-19T13:41:05.740Z,87.38
2023-01-19T13:43:37.582Z,87.07
2023-01-19T13:46:07.759Z,87.22
2023-01-19T13:48:37.400Z,87.34
2023-01-19T13:51:08.919Z,87.22
2023-01-19T13:53:38.515Z,87.56
2023-01-19T13:56:23.538Z,87.24
2023-01-19T13:59:05.104Z,87.18
2023-01-19T14:01:34.859Z,87.60
2023-01-19T14:04:04.702Z,87.53
2023-01-19T14:06:42.418Z,87.64
2023-01-19T14:09:19.323Z,87.61
2023-01-19T14:12:09.107Z,87.58
2023-01-19T14:14:38.877Z,87.61
2023-01-19T14:17:23.987Z,87.76
2023-01-19T14:19:55.438Z,87.59
2023-01-19T14:22:40.547Z,87.50
2023-01-19T14:25:34.408Z,87.58
2023-01-19T14:28:39.429Z,87.39
2023-01-19T14:31:22.794Z,87.70
2023-01-19T14:33:54.075Z,87.64
2023-01-19T14:36:39.243Z,87.32
2023-01-19T14:39:16.936Z,87.65
2023-01-19T14:41:49.187Z,87.60
2023-01-19T14:44:24.057Z,87.52
2023-01-19T14:46:53.667Z,87.47
2023-01-19T14:49:25.468Z,87.54
2023-01-19T14:51:56.079Z,87.62
2023-01-19T14:54:40.758Z,87.22
2023-01-19T14:57:14.223Z,87.25
2023-01-19T14:59:49.558Z,87.30
2023-01-19T15:02:19.493Z,87.46
2023-01-19T15:04:51.496Z,87.37
2023-01-19T15:07:21.799Z,87.58
2023-01-19T15:09:51.621Z,87.53
2023-01-19T15:12:24.048Z,87.62
2023-01-19T15:14:56.309Z,87.50
2023-01-19T15:17:27.902Z,87.57
2023-01-19T15:19:59.321Z,87.76
2023-01-19T15:22:30.023Z,87.78
2023-01-19T15:25:00.343Z,87.63
2023-01-19T15:27:30.114Z,87.64
2023-01-19T15:30:02.307Z,87.86
2023-01-19T15:32:31.867Z,87.90
2023-01-19T15:35:01.429Z,87.90
2023-01-19T15:37:33.029Z,87.99
2023-01-19T15:40:02.580Z,87.90
2023-01-19T15:42:33.348Z,87.90
2023-01-19T15:45:05.612Z,87.71
2023-01-19T15:47:35.185Z,87.71
2023-01-19T15:50:04.737Z,87.93
2023-01-19T15:52:34.333Z,88.02
2023-01-19T15:55:03.858Z,87.86
2023-01-19T15:57:35.096Z,87.90
2023-01-19T16:00:08.191Z,87.92
2023-01-19T16:02:40.056Z,88.11
2023-01-19T16:05:10.715Z,88.20
2023-01-19T16:07:40.529Z,88.01
2023-01-19T16:10:10.745Z,88.29
2023-01-19T16:12:40.505Z,88.29
2023-01-19T16:15:14.005Z,88.30
2023-01-19T16:17:43.559Z,88.39
2023-01-19T16:20:14.941Z,88.24
2023-01-19T16:22:44.651Z,88.46
2023-01-19T16:25:14.644Z,88.38
2023-01-19T16:27:44.193Z,88.28
2023-01-19T16:30:19.418Z,88.44
2023-01-19T16:32:49.353Z,88.37
2023-01-19T16:35:19.013Z,88.54
2023-01-19T16:37:53.018Z,88.36
2023-01-19T16:40:22.812Z,88.43
2023-01-19T16:42:52.409Z,88.54
2023-01-19T16:45:24.543Z,88.30
2023-01-19T16:47:54.152Z,88.59
2023-01-19T16:50:23.761Z,88.45
2023-01-19T16:52:53.320Z,88.46
2023-01-19T16:55:22.859Z,88.68
2023-01-19T16:57:52.633Z,88.76
2023-01-19T17:00:24.982Z,88.65
2023-01-19T17:02:54.607Z,88.58
2023-01-19T17:05:24.226Z,88.68
2023-01-19T17:07:53.809Z,88.89
2023-01-19T17:10:23.582Z,88.93
2023-01-19T17:12:53.132Z,88.78
2023-01-19T17:15:25.429Z,88.70
2023-01-19T17:17:54.995Z,88.78
2023-01-19T17:20:24.539Z,88.81
2023-01-19T17:22:54.562Z,88.85
2023-01-19T17:25:24.129Z,89.03
2023-01-19T17:27:53.723Z,89.09
2023-01-19T17:30:26.024Z,89.06
2023-01-19T17:32:55.677Z,89.00
2023-01-19T17:35:25.242Z,88.97
2023-01-19T17:37:56.906Z,88.99
2023-01-19T17:40:27.309Z,88.99
2023-01-19T17:42:56.896Z,89.03
2023-01-19T17:45:29.025Z,88.86
2023-01-19T17:47:58.627Z,88.78
2023-01-19T17:50:28.233Z,88.95
2023-01-19T17:52:58.357Z,88.81
2023-01-19T17:55:27.971Z,89.01
2023-01-19T17:58:00.223Z,88.74
2023-01-19T18:00:32.695Z,88.92
2023-01-19T18:03:02.378Z,89.03
2023-01-19T18:05:32.010Z,88.96
2023-01-19T18:08:01.835Z,88.75
2023-01-19T18:10:31.388Z,88.99
2023-01-19T18:13:00.955Z,88.78
2023-01-19T18:15:33.132Z,89.11
2023-01-19T18:18:02.722Z,88.78
2023-01-19T18:20:32.355Z,88.75
2023-01-19T18:23:01.930Z,88.72
2023-01-19T18:25:31.546Z,88.79
2023-01-19T18:28:01.217Z,88.96
2023-01-19T18:30:33.430Z,89.21
2023-01-19T18:33:03.102Z,89.10
2023-01-19T18:35:32.704Z,89.28
2023-01-19T18:38:02.319Z,89.31
2023-01-19T18:40:31.933Z,89.37
2023-01-19T18:43:01.487Z,89.22
2023-01-19T18:45:33.617Z,89.15
2023-01-19T18:48:03.688Z,89.37
2023-01-19T18:50:33.440Z,89.23
2023-01-19T18:53:03.017Z,89.56
2023-01-19T18:55:32.598Z,89.51
2023-01-19T18:58:04.173Z,89.38
2023-01-19T19:00:36.369Z,89.39
2023-01-19T19:03:10.272Z,89.56
2023-01-19T19:05:39.947Z,89.64
2023-01-19T19:08:09.943Z,89.79
2023-01-19T19:10:39.517Z,89.59
2023-01-19T19:13:09.168Z,89.74
2023-01-19T19:15:41.553Z,89.52
2023-01-19T19:18:13.203Z,89.87
2023-01-19T19:20:43.471Z,89.62
2023-01-19T19:23:13.879Z,89.52
2023-01-19T19:25:43.475Z,89.69
2023-01-19T19:28:13.056Z,89.79
2023-01-19T19:30:46.597Z,89.64
2023-01-19T19:33:16.341Z,89.58
2023-01-19T19:35:45.975Z,89.84
2023-01-19T19:38:15.535Z,90.05
2023-01-19T19:40:45.088Z,89.94
2023-01-19T19:43:14.715Z,90.18
2023-01-19T19:45:46.837Z,90.26
2023-01-19T19:48:16.446Z,90.32
2023-01-19T19:50:46.263Z,90.26
2023-01-19T19:53:15.829Z,90.47
2023-01-19T19:55:45.382Z,90.47
2023-01-19T19:58:14.959Z,90.50
2023-01-19T20:00:47.846Z,90.45
2023-01-19T20:03:17.458Z,90.50
2023-01-19T20:05:47.221Z,90.43
2023-01-19T20:08:16.921Z,90.61
2023-01-19T20:10:46.488Z,90.63
2023-01-19T20:13:19.263Z,90.45
2023-01-19T20:15:52.595Z,90.56
2023-01-19T20:18:22.180Z,90.58
2023-01-19T20:20:51.720Z,90.39
2023-01-19T20:23:21.317Z,90.46
2023-01-19T20:25:50.907Z,90.28
2023-01-19T20:28:20.574Z,90.21
2023-01-19T20:30:54.741Z,90.29
2023-01-19T20:33:24.145Z,90.00
2023-01-19T20:35:54.222Z,90.08
2023-01-19T20:38:23.790Z,90.02
2023-01-19T20:40:53.367Z,89.91
2023-01-19T20:43:23.007Z,90.15
2023-01-19T20:45:55.292Z,90.05
2023-01-19T20:48:24.943Z,90.01
2023-01-19T20:51:00.428Z,90.25
2023-01-19T20:53:30.700Z,90.14
2023-01-19T20:56:00.261Z,90.17
2023-01-19T20:58:31.324Z,90.16
2023-01-19T21:01:03.550Z,90.21
2023-01-19T21:03:34.816Z,90.37
2023-01-19T21:06:04.354Z,90.24
2023-01-19T21:08:33.944Z,90.30
2023-01-19T21:11:03.784Z,90.32
2023-01-19T21:13:33.401Z,90.63
2023-01-19T21:16:06.437Z,90.57
2023-01-19T21:18:36.208Z,90.69
2023-01-19T21:21:05.827Z,90.75
2023-01-19T21:23:35.834Z,90.73
2023-01-19T21:26:06.949Z,90.97
2023-01-19T21:28:36.583Z,90.73
2023-01-19T21:31:12.914Z,90.81
2023-01-19T21:33:42.975Z,91.14
2023-01-19T21:36:13.536Z,91.56
2023-01-19T21:38:43.128Z,91.71
2023-01-19T21:41:16.266Z,91.69
2023-01-19T21:43:46.324Z,91.88
2023-01-19T21:46:21.317Z,91.50
2023-01-19T21:48:51.238Z,91.45
2023-01-19T21:51:20.826Z,91.53
2023-01-19T21:53:52.375Z,91.38
2023-01-19T21:56:22.533Z,91.40
2023-01-19T21:58:52.088Z,91.16
2023-01-19T22:01:24.548Z,91.23
2023-01-19T22:03:56.443Z,91.16
2023-01-19T22:06:27.059Z,91.14
2023-01-19T22:08:57.964Z,91.14
2023-01-19T22:11:27.680Z,91.18
2023-01-19T22:13:59.632Z,91.30
2023-01-19T22:16:32.313Z,91.14
2023-01-19T22:19:03.667Z,91.33
2023-01-19T22:21:35.583Z,91.32
2023-01-19T22:24:06.918Z,91.29
2023-01-19T22:26:36.997Z,91.32
2023-01-19T22:29:11.094Z,91.50
2023-01-19T22:31:43.436Z,91.52
2023-01-19T22:34:13.701Z,91.38
2023-01-19T22:36:43.259Z,91.54
2023-01-19T22:39:14.708Z,91.34
2023-01-19T22:41:45.610Z,91.16
2023-01-19T22:44:16.970Z,91.13
2023-01-19T22:46:49.880Z,91.26
2023-01-19T22:49:20.853Z,91.31
2023-01-19T22:51:50.453Z,91.36
2023-01-19T22:54:21.315Z,91.18
2023-01-19T22:56:51.023Z,91.37
2023-01-19T22:59:20.591Z,91.40
2023-01-19T23:01:52.888Z,91.53
2023-01-19T23:04:22.709Z,91.30
2023-01-19T23:06:53.883Z,91.69
2023-01-19T23:09:23.455Z,91.58
2023-01-19T23:11:53.030Z,91.62
2023-01-19T23:14:24.492Z,91.87
2023-01-19T23:16:56.618Z,91.86
2023-01-19T23:19:26.221Z,92.10
2023-01-19T23:21:56.076Z,92.01
2023-01-19T23:24:25.670Z,92.08
2023-01-19T23:26:55.258Z,92.27
2023-01-19T23:29:24.866Z,92.10
2023-01-19T23:31:57.089Z,92.04
2023-01-19T23:34:26.668Z,91.76
2023-01-19T23:36:56.409Z,92.02
2023-01-19T23:39:25.959Z,92.00
2023-01-19T23:41:55.527Z,92.26
2023-01-19T23:44:25.085Z,92.41
2023-01-19T23:46:58.008Z,92.56
2023-01-19T23:49:27.895Z,92.28
2023-01-19T23:51:57.478Z,92.28
2023-01-19T23:54:27.139Z,92.64
2023-01-19T23:56:56.701Z,92.27
2023-01-19T23:59:26.266Z,92.28
